createdAt,value
2023-03-29T00:00:23.770Z,99374.28
2023-03-29T00:03:21.812Z,99374.17
2023-03-29T00:06:03.360Z,99373.70
2023-03-29T00:08:55.439Z,99372.04
2023-03-29T00:11:47.574Z,99375.01
2023-03-29T00:14:39.674Z,99373.52
2023-03-29T00:17:31.853Z,99376.69
2023-03-29T00:20:23.926Z,99367.30
2023-03-29T00:22:58.522Z,99367.70
2023-03-29T00:25:50.628Z,99373.41
2023-03-29T00:28:42.640Z,99370.58
2023-03-29T00:31:34.974Z,99372.77
2023-03-29T00:34:09.879Z,99372.18
2023-03-29T00:37:01.845Z,99372.73
2023-03-29T00:39:54.253Z,99370.47
2023-03-29T00:42:47.780Z,99371.48
2023-03-29T00:45:40.174Z,99368.13
2023-03-29T00:48:25.036Z,99365.77
2023-03-29T00:51:10.059Z,99363.98
2023-03-29T00:54:05.896Z,99364.14
2023-03-29T00:56:58.136Z,99365.17
2023-03-29T00:59:52.935Z,99363.92
2023-03-29T01:02:45.669Z,99362.02
2023-03-29T01:05:41.751Z,99363.07
2023-03-29T01:08:37.954Z,99361.85
2023-03-29T01:11:36.887Z,99358.73
2023-03-29T01:14:35.272Z,99355.94
2023-03-29T01:17:27.275Z,99353.06
2023-03-29T01:20:23.109Z,99346.05
2023-03-29T01:23:33.756Z,99348.79
2023-03-29T01:26:37.378Z,99349.73
2023-03-29T01:29:34.485Z,99350.66
2023-03-29T01:32:34.872Z,99350.77
2023-03-29T01:35:32.836Z,99346.11
2023-03-29T01:38:28.943Z,99340.65
2023-03-29T01:41:21.227Z,99334.71
2023-03-29T01:44:18.245Z,99331.00
2023-03-29T01:47:19.197Z,99329.20
2023-03-29T01:50:18.253Z,99333.39
2023-03-29T01:53:15.204Z,99333.55
2023-03-29T01:56:11.625Z,99331.23
2023-03-29T01:59:09.242Z,99328.23
2023-03-29T02:01:50.417Z,99329.39
2023-03-29T02:04:48.017Z,99331.27
2023-03-29T02:07:42.524Z,99334.36
2023-03-29T02:10:36.800Z,99333.88
2023-03-29T02:13:27.780Z,99338.68
2023-03-29T02:16:20.398Z,99333.80
2023-03-29T02:19:15.361Z,99334.67
2023-03-29T02:22:10.681Z,99333.45
2023-03-29T02:24:54.802Z,99333.79
2023-03-29T02:27:47.216Z,99333.95
2023-03-29T02:30:33.598Z,99335.66
2023-03-29T02:33:31.251Z,99340.45
2023-03-29T02:36:18.699Z,99337.84
2023-03-29T02:39:15.336Z,99336.98
2023-03-29T02:42:09.261Z,99340.52
2023-03-29T02:45:03.401Z,99342.79
2023-03-29T02:47:58.457Z,99341.50
2023-03-29T02:50:55.049Z,99345.27
2023-03-29T02:53:52.014Z,99345.06
2023-03-29T02:56:49.275Z,99349.30
2023-03-29T02:59:43.986Z,99347.36
2023-03-29T03:02:27.765Z,99348.54
2023-03-29T03:05:20.424Z,99342.37
2023-03-29T03:08:14.583Z,99343.69
2023-03-29T03:11:08.135Z,99345.27
2023-03-29T03:14:00.245Z,99342.69
2023-03-29T03:16:52.803Z,99345.00
2023-03-29T03:19:27.585Z,99344.58
2023-03-29T03:22:19.610Z,99347.11
2023-03-29T03:25:12.043Z,99346.43
2023-03-29T03:28:05.011Z,99344.00
2023-03-29T03:30:57.448Z,99345.40
2023-03-29T03:33:49.605Z,99349.89
2023-03-29T03:36:41.626Z,99346.99
2023-03-29T03:39:33.644Z,99344.53
2023-03-29T03:42:28.137Z,99342.91
2023-03-29T03:45:02.933Z,99344.02
2023-03-29T03:47:55.080Z,99342.36
2023-03-29T03:50:51.408Z,99344.67
2023-03-29T03:53:43.447Z,99346.80
2023-03-29T03:56:35.652Z,99342.45
2023-03-29T03:59:10.842Z,99341.91
2023-03-29T04:02:02.891Z,99338.41
2023-03-29T04:04:37.650Z,99334.71
2023-03-29T04:07:29.751Z,99339.52
2023-03-29T04:10:22.633Z,99342.84
2023-03-29T04:13:14.640Z,99348.25
2023-03-29T04:15:54.170Z,99349.17
2023-03-29T04:18:46.468Z,99347.84
2023-03-29T04:21:38.586Z,99349.05
2023-03-29T04:24:30.665Z,99349.91
2023-03-29T04:27:22.777Z,99348.35
2023-03-29T04:30:15.790Z,99345.13
2023-03-29T04:33:07.919Z,99343.73
2023-03-29T04:36:00.603Z,99343.06
2023-03-29T04:38:47.430Z,99346.31
2023-03-29T04:41:40.344Z,99347.48
2023-03-29T04:44:16.158Z,99345.56
2023-03-29T04:46:55.527Z,99346.17
2023-03-29T04:49:47.757Z,99344.39
2023-03-29T04:52:39.994Z,99344.36
2023-03-29T04:55:32.038Z,99344.23
2023-03-29T04:58:27.116Z,99343.27
2023-03-29T05:01:11.467Z,99343.64
2023-03-29T05:04:04.798Z,99343.11
2023-03-29T05:06:57.402Z,99338.82
2023-03-29T05:09:49.493Z,99344.27
2023-03-29T05:12:41.484Z,99342.02
2023-03-29T05:15:33.620Z,99341.71
2023-03-29T05:18:25.642Z,99339.36
2023-03-29T05:21:18.479Z,99337.34
2023-03-29T05:24:10.974Z,99339.89
2023-03-29T05:26:52.670Z,99335.17
2023-03-29T05:29:44.793Z,99337.80
2023-03-29T05:32:39.071Z,99330.41
2023-03-29T05:35:31.391Z,99329.77
2023-03-29T05:38:23.460Z,99330.34
2023-03-29T05:41:16.486Z,99332.77
2023-03-29T05:44:08.605Z,99332.87
2023-03-29T05:46:43.404Z,99326.64
2023-03-29T05:49:19.129Z,99329.47
2023-03-29T05:52:11.621Z,99331.18
2023-03-29T05:55:04.224Z,99327.94
2023-03-29T05:57:46.620Z,99325.14
2023-03-29T06:00:39.148Z,99320.95
2023-03-29T06:03:25.157Z,99317.76
2023-03-29T06:06:17.557Z,99320.27
2023-03-29T06:08:49.454Z,99317.34
2023-03-29T06:11:22.261Z,99317.52
2023-03-29T06:14:14.566Z,99325.43
2023-03-29T06:16:51.720Z,99324.56
2023-03-29T06:19:44.330Z,99319.70
2023-03-29T06:22:36.789Z,99324.08
2023-03-29T06:25:19.674Z,99328.98
2023-03-29T06:28:12.425Z,99325.25
2023-03-29T06:31:05.182Z,99329.48
2023-03-29T06:33:53.785Z,99333.59
2023-03-29T06:36:45.823Z,99340.19
2023-03-29T06:39:37.846Z,99347.67
2023-03-29T06:42:21.691Z,99346.52
2023-03-29T06:45:15.971Z,99346.67
2023-03-29T06:48:09.053Z,99347.27
2023-03-29T06:50:40.997Z,99342.27
2023-03-29T06:53:32.954Z,99339.58
2023-03-29T06:56:09.797Z,99338.37
2023-03-29T06:59:01.965Z,99343.20
2023-03-29T07:01:55.117Z,99338.17
2023-03-29T07:04:47.527Z,99338.25
2023-03-29T07:07:22.642Z,99333.02
2023-03-29T07:10:15.010Z,99332.02
2023-03-29T07:13:08.781Z,99339.16
2023-03-29T07:15:44.950Z,99336.71
2023-03-29T07:18:37.069Z,99333.89
2023-03-29T07:21:29.611Z,99332.54
2023-03-29T07:24:22.601Z,99334.61
2023-03-29T07:27:14.687Z,99336.55
2023-03-29T07:30:11.196Z,99330.73
2023-03-29T07:32:46.343Z,99327.77
2023-03-29T07:35:21.695Z,99328.77
2023-03-29T07:37:54.954Z,99325.11
2023-03-29T07:40:31.026Z,99326.45
2023-03-29T07:43:24.031Z,99327.04
2023-03-29T07:46:16.010Z,99328.30
2023-03-29T07:49:08.668Z,99327.15
2023-03-29T07:52:01.433Z,99324.86
2023-03-29T07:54:53.412Z,99323.18
2023-03-29T07:57:32.735Z,99327.52
2023-03-29T08:00:25.765Z,99328.21
2023-03-29T08:03:01.966Z,99323.81
2023-03-29T08:05:54.307Z,99327.34
2023-03-29T08:08:46.408Z,99323.61
2023-03-29T08:11:28.956Z,99318.80
2023-03-29T08:14:06.765Z,99319.87
2023-03-29T08:16:58.925Z,99316.92
2023-03-29T08:19:51.701Z,99309.30
2023-03-29T08:22:44.737Z,99305.84
2023-03-29T08:25:37.318Z,99305.35
2023-03-29T08:28:11.858Z,99299.19
2023-03-29T08:30:46.764Z,99296.45
2023-03-29T08:33:38.793Z,99294.42
2023-03-29T08:36:30.908Z,99292.52
2023-03-29T08:39:23.050Z,99291.25
2023-03-29T08:42:34.235Z,99280.66
2023-03-29T08:45:37.001Z,99272.38
2023-03-29T08:48:17.690Z,99275.27
2023-03-29T08:51:19.030Z,99272.52
2023-03-29T08:53:54.894Z,99271.20
2023-03-29T08:56:52.295Z,99269.42
2023-03-29T08:59:46.737Z,99262.71
2023-03-29T09:02:27.734Z,99263.83
2023-03-29T09:05:26.761Z,99252.46
2023-03-29T09:08:20.852Z,99253.21
2023-03-29T09:11:33.701Z,99244.89
2023-03-29T09:14:48.985Z,99240.40
2023-03-29T09:17:49.712Z,99233.11
2023-03-29T09:20:35.742Z,99239.52
2023-03-29T09:23:44.375Z,99231.09
2023-03-29T09:26:31.110Z,99224.58
2023-03-29T09:29:34.066Z,99222.31
2023-03-29T09:32:32.989Z,99223.66
2023-03-29T09:35:32.234Z,99218.70
2023-03-29T09:38:24.471Z,99216.84
2023-03-29T09:41:24.956Z,99205.59
2023-03-29T09:44:30.180Z,99202.92
2023-03-29T09:47:08.487Z,99198.29
2023-03-29T09:50:05.498Z,99194.81
2023-03-29T09:52:57.801Z,99196.17
2023-03-29T09:55:40.873Z,99195.04
2023-03-29T09:58:33.185Z,99193.52
2023-03-29T10:01:18.791Z,99191.88
2023-03-29T10:04:01.576Z,99188.16
2023-03-29T10:06:54.886Z,99183.04
2023-03-29T10:09:47.987Z,99172.81
2023-03-29T10:12:40.181Z,99175.67
2023-03-29T10:15:33.385Z,99175.51
2023-03-29T10:18:12.583Z,99170.42
2023-03-29T10:21:02.593Z,99172.25
2023-03-29T10:24:01.086Z,99167.81
2023-03-29T10:26:55.849Z,99159.11
2023-03-29T10:29:36.330Z,99161.59
2023-03-29T10:32:33.413Z,99164.72
2023-03-29T10:35:13.418Z,99161.75
2023-03-29T10:37:52.988Z,99163.31
2023-03-29T10:40:48.061Z,99159.79
2023-03-29T10:43:29.450Z,99156.13
2023-03-29T10:46:32.962Z,99159.95
2023-03-29T10:49:27.017Z,99150.95
2023-03-29T10:51:58.906Z,99145.66
2023-03-29T10:54:31.223Z,99140.98
2023-03-29T10:57:10.432Z,99145.52
2023-03-29T10:59:53.024Z,99133.41
2023-03-29T11:03:07.201Z,99131.59
2023-03-29T11:05:55.688Z,99125.77
2023-03-29T11:08:57.398Z,99117.48
2023-03-29T11:12:15.773Z,99113.69
2023-03-29T11:15:16.639Z,99106.60
2023-03-29T11:18:26.238Z,99103.29
2023-03-29T11:21:28.831Z,99098.58
2023-03-29T11:24:29.906Z,99093.54
2023-03-29T11:27:33.792Z,99082.45
2023-03-29T11:30:32.083Z,99086.42
2023-03-29T11:33:38.638Z,99084.71
2023-03-29T11:36:44.581Z,99077.92
2023-03-29T11:39:50.891Z,99075.77
2023-03-29T11:42:48.944Z,99067.83
2023-03-29T11:45:46.925Z,99064.46
2023-03-29T11:48:42.948Z,99056.73
2023-03-29T11:51:39.270Z,99049.30
2023-03-29T11:54:35.926Z,99047.05
2023-03-29T11:57:32.074Z,99039.19
2023-03-29T12:00:28.505Z,99039.23
2023-03-29T12:03:32.247Z,99026.87
2023-03-29T12:06:09.288Z,99018.42
2023-03-29T12:09:06.805Z,99020.09
2023-03-29T12:12:04.445Z,99019.74
2023-03-29T12:14:54.171Z,99013.13
2023-03-29T12:17:50.172Z,99014.38
2023-03-29T12:20:47.641Z,99011.02
2023-03-29T12:23:42.405Z,99010.29
2023-03-29T12:26:56.572Z,99006.35
2023-03-29T12:30:04.626Z,99009.84
2023-03-29T12:33:19.721Z,99009.52
2023-03-29T12:36:31.568Z,99006.36
2023-03-29T12:39:25.597Z,99000.46
2023-03-29T12:42:19.739Z,99002.66
2023-03-29T12:45:20.248Z,98993.02
2023-03-29T12:48:19.819Z,98992.41
2023-03-29T12:51:16.151Z,98994.27
2023-03-29T12:54:11.237Z,98988.77
2023-03-29T12:57:00.261Z,98981.75
2023-03-29T12:59:52.442Z,98982.23
2023-03-29T13:02:38.300Z,98976.71
2023-03-29T13:05:39.519Z,98976.95
2023-03-29T13:08:36.392Z,98980.14
2023-03-29T13:11:32.640Z,98979.32
2023-03-29T13:14:30.960Z,98975.23
2023-03-29T13:17:45.150Z,98970.85
2023-03-29T13:20:47.354Z,98967.38
2023-03-29T13:23:46.752Z,98970.52
2023-03-29T13:26:43.746Z,98970.77
2023-03-29T13:30:04.559Z,98966.75
2023-03-29T13:33:18.055Z,98956.86
2023-03-29T13:36:16.903Z,98952.19
2023-03-29T13:38:54.505Z,98958.02
2023-03-29T13:41:48.802Z,98949.48
2023-03-29T13:44:41.280Z,98945.34
2023-03-29T13:47:54.942Z,98937.55
2023-03-29T13:51:00.882Z,98936.39
2023-03-29T13:53:50.548Z,98935.13
2023-03-29T13:56:51.505Z,98934.59
2023-03-29T13:59:50.767Z,98931.05
2023-03-29T14:02:49.680Z,98929.45
2023-03-29T14:05:48.957Z,98932.27
2023-03-29T14:08:43.045Z,98928.30
2023-03-29T14:11:36.439Z,98931.06
2023-03-29T14:14:18.798Z,98927.78
2023-03-29T14:17:14.307Z,98928.56
2023-03-29T14:20:10.095Z,98928.28
2023-03-29T14:22:45.445Z,98926.98
2023-03-29T14:25:27.288Z,98923.37
2023-03-29T14:28:28.188Z,98921.08
2023-03-29T14:31:25.140Z,98914.60
2023-03-29T14:34:12.963Z,98913.29
2023-03-29T14:37:05.642Z,98913.46
2023-03-29T14:39:59.560Z,98912.73
2023-03-29T14:42:42.455Z,98915.96
2023-03-29T14:45:34.891Z,98912.88
2023-03-29T14:48:25.967Z,98915.64
2023-03-29T14:51:18.302Z,98909.84
2023-03-29T14:54:07.551Z,98907.98
2023-03-29T14:56:52.368Z,98908.32
2023-03-29T14:59:42.030Z,98905.98
2023-03-29T15:02:31.170Z,98904.26
2023-03-29T15:05:32.551Z,98893.02
2023-03-29T15:08:19.227Z,98892.16
2023-03-29T15:11:18.453Z,98892.52
2023-03-29T15:14:16.042Z,98890.84
2023-03-29T15:17:31.306Z,98887.45
2023-03-29T15:20:21.392Z,98882.36
2023-03-29T15:23:23.906Z,98888.78
2023-03-29T15:26:21.650Z,98883.94
2023-03-29T15:29:17.284Z,98879.06
2023-03-29T15:31:59.893Z,98875.15
2023-03-29T15:35:00.873Z,98872.32
2023-03-29T15:37:53.738Z,98874.75
2023-03-29T15:40:41.049Z,98874.69
2023-03-29T15:43:33.207Z,98873.16
2023-03-29T15:46:25.481Z,98875.77
2023-03-29T15:49:00.432Z,98875.06
2023-03-29T15:51:32.134Z,98872.35
2023-03-29T15:54:24.868Z,98868.25
2023-03-29T15:57:18.580Z,98868.53
2023-03-29T16:00:18.889Z,98863.12
2023-03-29T16:02:54.364Z,98860.46
2023-03-29T16:05:31.102Z,98865.16
2023-03-29T16:08:13.999Z,98869.11
2023-03-29T16:11:06.810Z,98864.64
2023-03-29T16:13:41.493Z,98866.27
2023-03-29T16:16:34.823Z,98865.10
2023-03-29T16:19:27.662Z,98864.06
2023-03-29T16:22:19.728Z,98856.62
2023-03-29T16:25:15.777Z,98857.59
2023-03-29T16:28:09.050Z,98852.40
2023-03-29T16:30:52.352Z,98850.56
2023-03-29T16:33:44.651Z,98849.94
2023-03-29T16:36:36.647Z,98848.13
2023-03-29T16:39:28.783Z,98847.19
2023-03-29T16:42:20.900Z,98849.38
2023-03-29T16:45:16.072Z,98854.52
2023-03-29T16:47:51.193Z,98854.23
2023-03-29T16:50:43.462Z,98854.11
2023-03-29T16:53:36.134Z,98858.14
2023-03-29T16:56:28.828Z,98858.23
2023-03-29T16:59:20.983Z,98858.26
2023-03-29T17:02:13.471Z,98859.72
2023-03-29T17:04:54.209Z,98864.45
2023-03-29T17:07:46.825Z,98865.54
2023-03-29T17:10:29.214Z,98865.41
2023-03-29T17:13:23.786Z,98867.89
2023-03-29T17:16:16.093Z,98867.92
2023-03-29T17:19:08.303Z,98866.93
2023-03-29T17:22:00.730Z,98868.53
2023-03-29T17:24:43.857Z,98866.09
2023-03-29T17:27:15.879Z,98870.80
2023-03-29T17:30:09.956Z,98873.09
2023-03-29T17:33:02.350Z,98879.04
2023-03-29T17:35:37.063Z,98876.27
2023-03-29T17:38:30.316Z,98880.63
2023-03-29T17:41:22.838Z,98887.30
2023-03-29T17:44:14.951Z,98892.54
2023-03-29T17:47:07.093Z,98896.07
2023-03-29T17:49:59.380Z,98894.50
2023-03-29T17:52:51.672Z,98890.70
2023-03-29T17:55:46.072Z,98887.24
2023-03-29T17:58:38.247Z,98889.50
2023-03-29T18:01:30.825Z,98884.84
2023-03-29T18:04:23.122Z,98885.71
2023-03-29T18:07:15.397Z,98885.92
2023-03-29T18:10:09.234Z,98883.15
2023-03-29T18:13:01.375Z,98889.79
2023-03-29T18:15:57.234Z,98896.06
2023-03-29T18:18:41.580Z,98904.23
2023-03-29T18:21:19.497Z,98909.82
2023-03-29T18:23:57.381Z,98907.75
2023-03-29T18:26:41.236Z,98911.06
2023-03-29T18:29:33.713Z,98912.78
2023-03-29T18:32:25.887Z,98913.15
2023-03-29T18:37:29.621Z,98906.89
2023-03-29T18:40:24.744Z,98900.64
2023-03-29T18:42:57.388Z,98896.83
2023-03-29T18:45:32.367Z,98897.67
2023-03-29T18:48:09.989Z,98889.84
2023-03-29T18:51:03.808Z,98890.53
2023-03-29T18:53:48.343Z,98889.49
2023-03-29T18:56:40.332Z,98894.71
2023-03-29T18:59:32.503Z,98894.52
2023-03-29T19:02:24.714Z,98893.15
2023-03-29T19:05:09.809Z,98889.16
2023-03-29T19:08:02.750Z,98888.80
2023-03-29T19:10:39.178Z,98891.41
2023-03-29T19:13:31.321Z,98889.83
2023-03-29T19:16:23.381Z,98890.54
2023-03-29T19:19:15.542Z,98892.61
2023-03-29T19:22:07.798Z,98896.95
2023-03-29T19:24:59.718Z,98898.17
2023-03-29T19:27:51.730Z,98902.84
2023-03-29T19:30:43.782Z,98912.58
2023-03-29T19:33:35.748Z,98910.47
2023-03-29T19:36:28.189Z,98905.77
2023-03-29T19:39:20.827Z,98909.25
2023-03-29T19:41:52.913Z,98908.35
2023-03-29T19:44:44.870Z,98906.61
2023-03-29T19:47:37.302Z,98899.98
2023-03-29T19:50:29.649Z,98906.92
2023-03-29T19:53:23.029Z,98906.91
2023-03-29T19:56:15.847Z,98900.45
2023-03-29T19:58:57.845Z,98894.38
2023-03-29T20:01:51.760Z,98897.33
2023-03-29T20:04:24.608Z,98894.16
2023-03-29T20:06:59.718Z,98896.94
2023-03-29T20:09:37.689Z,98895.35
2023-03-29T20:12:29.749Z,98900.17
2023-03-29T20:15:25.549Z,98893.89
2023-03-29T20:18:16.138Z,98888.66
2023-03-29T20:21:09.041Z,98888.63
2023-03-29T20:23:41.595Z,98892.42
2023-03-29T20:26:18.514Z,98891.20
2023-03-29T20:29:11.409Z,98888.22
2023-03-29T20:32:03.492Z,98884.38
2023-03-29T20:34:55.631Z,98882.45
2023-03-29T20:37:47.626Z,98882.58
2023-03-29T20:40:40.825Z,98886.20
2023-03-29T20:43:37.789Z,98879.08
2023-03-29T20:46:34.198Z,98875.05
2023-03-29T20:49:26.105Z,98870.88
2023-03-29T20:52:18.813Z,98868.80
2023-03-29T20:55:00.498Z,98864.61
2023-03-29T20:57:54.252Z,98866.17
2023-03-29T21:00:46.857Z,98866.68
2023-03-29T21:03:30.363Z,98866.30
2023-03-29T21:06:24.431Z,98870.80
2023-03-29T21:09:16.424Z,98871.86
2023-03-29T21:12:08.970Z,98872.07
2023-03-29T21:15:02.356Z,98869.31
2023-03-29T21:17:54.499Z,98863.09
2023-03-29T21:20:29.859Z,98856.33
2023-03-29T21:23:22.036Z,98850.59
2023-03-29T21:26:14.142Z,98848.51
2023-03-29T21:29:06.917Z,98849.04
2023-03-29T21:31:41.972Z,98847.31
2023-03-29T21:34:16.235Z,98848.20
2023-03-29T21:37:08.277Z,98853.42
2023-03-29T21:40:00.543Z,98851.52
2023-03-29T21:42:52.600Z,98851.70
2023-03-29T21:45:44.629Z,98849.48
2023-03-29T21:48:37.014Z,98847.08
2023-03-29T21:51:11.969Z,98841.53
2023-03-29T21:54:04.171Z,98841.02
2023-03-29T21:56:56.289Z,98839.31
2023-03-29T21:59:48.292Z,98839.67
2023-03-29T22:02:25.663Z,98837.42
2023-03-29T22:05:17.819Z,98829.61
2023-03-29T22:08:10.798Z,98830.30
2023-03-29T22:11:09.066Z,98831.17
2023-03-29T22:13:54.181Z,98824.23
2023-03-29T22:16:37.160Z,98820.94
2023-03-29T22:19:29.299Z,98814.87
2023-03-29T22:22:07.158Z,98814.86
2023-03-29T22:24:59.191Z,98814.69
2023-03-29T22:27:31.139Z,98813.61
2023-03-29T22:30:23.404Z,98809.80
2023-03-29T22:33:04.502Z,98810.66
2023-03-29T22:35:57.357Z,98811.35
2023-03-29T22:38:50.465Z,98809.62
2023-03-29T22:41:43.010Z,98810.48
2023-03-29T22:44:17.541Z,98808.23
2023-03-29T22:47:09.692Z,98805.47
2023-03-29T22:49:51.965Z,98801.48
2023-03-29T22:52:43.984Z,98806.17
2023-03-29T22:55:16.484Z,98803.75
2023-03-29T22:58:08.771Z,98802.55
2023-03-29T23:01:01.015Z,98796.30
2023-03-29T23:03:53.087Z,98798.56
2023-03-29T23:06:27.975Z,98793.19
2023-03-29T23:09:20.072Z,98792.66
2023-03-29T23:12:02.452Z,98792.14
2023-03-29T23:14:55.768Z,98794.05
2023-03-29T23:17:47.936Z,98796.66
2023-03-29T23:20:40.728Z,98791.80
2023-03-29T23:23:12.857Z,98790.93
2023-03-29T23:26:05.394Z,98790.41
2023-03-29T23:28:51.457Z,98787.30
2023-03-29T23:31:44.255Z,98787.15
2023-03-29T23:34:36.388Z,98781.77
2023-03-29T23:37:28.359Z,98779.00
2023-03-29T23:40:20.962Z,98780.21
2023-03-29T23:43:13.525Z,98777.61
2023-03-29T23:45:59.643Z,98775.53
2023-03-29T23:48:53.171Z,98770.88
2023-03-29T23:51:48.216Z,98769.31
2023-03-29T23:54:40.233Z,98772.80
2023-03-29T23:57:34.970Z,98773.83
